Time;durP1;ratioP1;P1;durP2;ratioP2;P2;SDS_P1;SDS_P2;PMS_P1;PMS_P2;Temp;Humidity;BMP_temperature;BMP_pressure;BME280_temperature;BME280_humidity;BME280_pressure;Samples;Min_cycle;Max_cycle;Signal;HPM_P1;HPM_P2
2022/11/09 00:01:01;;;;;;;13.65;7.78;;;15.00;99.90;;;;;;5049507;28;20467;-76
2022/11/09 00:03:29;;;;;;;14.63;7.22;;;15.00;99.90;;;;;;5066220;28;20491;-73
2022/11/09 00:05:58;;;;;;;10.85;7.13;;;15.00;99.90;;;;;;5066127;28;20702;-74
2022/11/09 00:08:26;;;;;;;10.27;6.70;;;15.10;99.90;;;;;;5060592;28;20049;-73
2022/11/09 00:10:53;;;;;;;9.48;6.47;;;15.10;99.90;;;;;;5066727;28;20045;-73
2022/11/09 00:13:21;;;;;;;10.15;7.55;;;15.10;99.90;;;;;;5032277;28;20422;-74
2022/11/09 00:15:49;;;;;;;9.18;7.13;;;15.10;99.90;;;;;;5048028;28;20529;-73
2022/11/09 00:18:16;;;;;;;8.95;6.78;;;15.10;99.90;;;;;;5039881;28;20399;-74
2022/11/09 00:20:44;;;;;;;10.82;7.47;;;15.10;99.90;;;;;;5033087;28;20399;-74
2022/11/09 00:23:13;;;;;;;9.55;6.55;;;15.10;99.90;;;;;;5063347;28;20037;-74
2022/11/09 00:25:41;;;;;;;12.15;6.75;;;15.20;99.90;;;;;;5046509;28;20075;-74
2022/11/09 00:28:09;;;;;;;8.18;6.22;;;15.10;99.90;;;;;;5041949;28;20075;-76
2022/11/09 00:30:37;;;;;;;11.98;6.93;;;15.10;99.90;;;;;;5055431;28;20045;-74
2022/11/09 00:33:04;;;;;;;9.65;6.90;;;15.20;99.90;;;;;;5043726;28;20059;-75
2022/11/09 00:35:32;;;;;;;9.85;5.97;;;15.20;99.90;;;;;;5070377;28;20367;-73
2022/11/09 00:38:01;;;;;;;10.30;7.25;;;15.10;99.90;;;;;;5047725;28;20044;-74
2022/11/09 00:40:31;;;;;;;10.90;7.15;;;15.10;99.90;;;;;;5070391;28;20118;-75
2022/11/09 00:42:58;;;;;;;11.82;7.65;;;15.10;99.90;;;;;;5046919;28;20048;-75
2022/11/09 00:45:26;;;;;;;10.77;7.88;;;15.10;99.90;;;;;;5068281;28;20153;-77
2022/11/09 00:47:54;;;;;;;11.23;7.10;;;15.10;99.90;;;;;;5048895;28;20137;-74
2022/11/09 00:50:22;;;;;;;13.10;6.90;;;15.10;99.90;;;;;;5025541;28;20094;-74
2022/11/09 00:52:50;;;;;;;10.55;6.88;;;15.10;99.90;;;;;;5048452;28;20483;-75
2022/11/09 00:55:19;;;;;;;9.20;6.72;;;15.00;99.90;;;;;;5065030;28;20029;-73
2022/11/09 00:57:51;;;;;;;7.90;5.97;;;15.00;99.90;;;;;;5065507;28;20533;-75
2022/11/09 01:00:22;;;;;;;11.43;7.15;;;15.00;99.90;;;;;;5050581;28;20496;-74
2022/11/09 01:02:50;;;;;;;10.50;6.70;;;15.00;99.90;;;;;;5033100;28;20180;-75
2022/11/09 01:05:18;;;;;;;7.28;5.07;;;15.00;99.90;;;;;;5053182;28;20064;-75
2022/11/09 01:07:48;;;;;;;10.88;6.75;;;15.00;99.90;;;;;;5069054;28;20189;-74
2022/11/09 01:10:15;;;;;;;11.27;7.95;;;15.00;99.90;;;;;;5035665;28;20106;-74
2022/11/09 01:12:45;;;;;;;11.50;6.90;;;15.00;99.90;;;;;;5034758;28;20052;-74
2022/11/09 01:15:14;;;;;;;9.30;6.95;;;15.00;99.90;;;;;;5053076;28;20122;-74
2022/11/09 01:17:41;;;;;;;10.23;7.20;;;15.00;99.90;;;;;;5047204;28;20037;-73
2022/11/09 01:20:10;;;;;;;10.20;6.60;;;15.00;99.90;;;;;;5067669;28;20510;-74
2022/11/09 01:22:37;;;;;;;9.00;6.93;;;15.00;99.90;;;;;;5044694;28;20053;-74
2022/11/09 01:25:05;;;;;;;11.10;6.35;;;15.00;99.90;;;;;;5067162;28;20402;-74
2022/11/09 01:27:33;;;;;;;10.00;6.57;;;15.00;99.90;;;;;;5049899;28;20094;-74
2022/11/09 01:30:01;;;;;;;9.95;7.75;;;15.00;99.90;;;;;;5036267;28;20056;-78
2022/11/09 01:32:31;;;;;;;9.95;6.63;;;14.90;99.90;;;;;;5042030;28;20049;-74
2022/11/09 01:34:58;;;;;;;9.05;6.55;;;14.90;99.90;;;;;;5052540;28;20119;-74
2022/11/09 01:37:29;;;;;;;9.73;7.65;;;14.90;99.90;;;;;;5067872;28;20090;-74
2022/11/09 01:39:56;;;;;;;8.85;7.30;;;14.80;99.90;;;;;;5052414;28;20072;-74
2022/11/09 01:42:24;;;;;;;9.73;6.43;;;14.80;99.90;;;;;;5064193;28;20493;-75
2022/11/09 01:45:17;;;;;;;10.63;6.63;;;14.80;99.90;;;;;;5063742;28;20048;-73
2022/11/09 01:47:54;;;;;;;10.15;7.38;;;14.80;99.90;;;;;;5026989;28;20060;-74
2022/11/09 01:50:37;;;;;;;10.38;6.22;;;14.80;99.90;;;;;;5035740;28;20053;-75
2022/11/09 01:53:09;;;;;;;9.32;6.60;;;14.70;99.90;;;;;;5048758;28;20119;-74
2022/11/09 01:55:38;;;;;;;12.32;7.88;;;14.70;99.90;;;;;;5059891;28;20041;-74
2022/11/09 01:58:11;;;;;;;17.10;8.30;;;14.70;99.90;;;;;;5067685;28;20510;-73
2022/11/09 02:00:44;;;;;;;11.00;7.82;;;14.70;99.90;;;;;;5068165;28;20060;-74
2022/11/09 02:03:41;;;;;;;12.63;9.25;;;14.60;99.90;;;;;;5047922;28;20110;-74
2022/11/09 02:06:12;;;;;;;16.63;9.45;;;14.60;99.90;;;;;;5040295;28;20040;-75
2022/11/09 02:08:40;;;;;;;13.38;9.02;;;14.60;99.90;;;;;;5067258;28;20052;-75
2022/11/09 02:11:15;;;;;;;15.73;9.77;;;14.50;99.90;;;;;;5042990;28;20510;-74
2022/11/09 02:13:55;;;;;;;15.05;10.35;;;14.50;99.90;;;;;;5068706;28;20135;-74
2022/11/09 02:16:23;;;;;;;13.98;8.90;;;14.40;99.90;;;;;;5053240;28;20040;-75
2022/11/09 02:18:53;;;;;;;17.95;10.43;;;14.40;99.90;;;;;;5052386;28;20045;-74
2022/11/09 02:21:25;;;;;;;16.30;9.57;;;14.40;99.90;;;;;;5069710;28;20048;-74
2022/11/09 02:23:54;;;;;;;14.93;10.57;;;14.40;99.90;;;;;;5069545;28;20044;-75
2022/11/09 02:26:26;;;;;;;14.82;9.75;;;14.40;99.90;;;;;;5052897;28;20083;-75
2022/11/09 02:28:55;;;;;;;15.77;10.13;;;14.40;99.90;;;;;;5053114;28;20049;-75
2022/11/09 02:31:28;;;;;;;13.60;10.30;;;14.30;99.90;;;;;;5069639;28;20512;-75
2022/11/09 02:34:10;;;;;;;13.80;8.98;;;14.30;99.90;;;;;;5036480;28;20094;-74
2022/11/09 02:36:37;;;;;;;12.35;8.98;;;14.30;99.90;;;;;;5032967;28;20078;-75
2022/11/09 02:39:13;;;;;;;16.08;9.13;;;14.30;99.90;;;;;;5069026;28;20043;-75
2022/11/09 02:41:46;;;;;;;16.58;9.82;;;14.30;99.90;;;;;;5051862;28;20060;-75
2022/11/09 02:44:15;;;;;;;14.50;9.52;;;14.30;99.90;;;;;;5032309;28;20051;-74
2022/11/09 02:46:43;;;;;;;14.10;10.40;;;14.30;99.90;;;;;;5049323;28;20045;-75
2022/11/09 02:49:10;;;;;;;12.50;8.90;;;14.20;99.90;;;;;;5032439;28;20068;-76
2022/11/09 02:51:38;;;;;;;19.90;9.70;;;14.20;99.90;;;;;;5048859;28;20056;-75
2022/11/09 02:54:05;;;;;;;17.58;10.63;;;14.20;99.90;;;;;;5032290;28;20060;-75
2022/11/09 02:56:33;;;;;;;16.73;11.02;;;14.20;99.90;;;;;;5017738;28;20107;-75
2022/11/09 02:59:02;;;;;;;13.70;11.18;;;14.20;99.90;;;;;;5052149;28;20044;-75
2022/11/09 03:01:31;;;;;;;14.57;11.10;;;14.20;99.90;;;;;;5052189;28;20041;-75
2022/11/09 03:03:59;;;;;;;17.35;12.10;;;14.20;99.90;;;;;;5068553;28;20094;-76
2022/11/09 03:06:33;;;;;;;18.40;12.52;;;14.20;99.90;;;;;;5051756;28;20395;-74
2022/11/09 03:09:08;;;;;;;20.85;12.73;;;14.20;99.90;;;;;;5051747;28;20151;-75
2022/11/09 03:11:37;;;;;;;17.05;12.73;;;14.20;99.90;;;;;;5068330;28;20045;-75
2022/11/09 03:14:06;;;;;;;16.30;11.80;;;14.20;99.90;;;;;;5051718;28;20049;-75
2022/11/09 03:16:35;;;;;;;20.17;13.95;;;14.10;99.90;;;;;;5069033;28;20057;-76
2022/11/09 03:19:05;;;;;;;16.55;12.10;;;14.20;99.90;;;;;;5051836;28;20045;-77
2022/11/09 03:21:34;;;;;;;16.73;10.48;;;14.20;99.90;;;;;;5068600;28;20071;-75
2022/11/09 03:24:02;;;;;;;15.85;10.23;;;14.20;99.90;;;;;;5051402;28;20469;-75
2022/11/09 03:26:31;;;;;;;16.75;12.05;;;14.20;99.90;;;;;;5035088;28;20521;-76
2022/11/09 03:28:59;;;;;;;15.18;9.90;;;14.20;99.90;;;;;;5068508;28;20434;-75
2022/11/09 03:31:28;;;;;;;15.13;10.82;;;14.20;99.90;;;;;;5037344;28;20051;-75
2022/11/09 03:33:57;;;;;;;14.93;9.95;;;14.10;99.90;;;;;;5016069;28;20535;-75
2022/11/09 03:36:24;;;;;;;15.10;10.05;;;14.20;99.90;;;;;;5031459;28;20048;-75
2022/11/09 03:38:52;;;;;;;12.13;8.65;;;14.20;99.90;;;;;;5031189;28;20041;-74
2022/11/09 03:41:20;;;;;;;10.85;8.00;;;14.20;99.90;;;;;;5031148;28;20049;-75
2022/11/09 03:43:47;;;;;;;12.43;7.85;;;14.20;99.90;;;;;;5014898;28;20138;-75
2022/11/09 03:46:15;;;;;;;13.00;8.30;;;14.20;99.90;;;;;;5031289;28;20052;-75
2022/11/09 03:48:44;;;;;;;12.55;8.30;;;14.20;99.90;;;;;;5048118;28;20076;-75
2022/11/09 03:51:11;;;;;;;10.73;8.88;;;14.20;99.90;;;;;;5047893;28;20055;-75
2022/11/09 03:53:38;;;;;;;12.20;8.98;;;14.30;99.90;;;;;;5047750;28;20053;-75
2022/11/09 03:56:06;;;;;;;11.70;7.57;;;14.30;99.90;;;;;;5030279;28;20063;-76
2022/11/09 03:58:34;;;;;;;10.63;6.55;;;14.30;99.90;;;;;;5014564;28;20041;-75
2022/11/09 04:01:01;;;;;;;9.77;7.30;;;14.30;99.90;;;;;;5038904;28;20072;-75
2022/11/09 04:03:29;;;;;;;8.95;7.45;;;14.30;99.90;;;;;;5047714;28;20534;-74
2022/11/09 04:05:59;;;;;;;9.88;7.05;;;14.30;99.90;;;;;;5047392;28;20037;-75
2022/11/09 04:08:27;;;;;;;10.90;6.97;;;14.30;99.90;;;;;;5014150;28;20102;-74
2022/11/09 04:10:54;;;;;;;10.25;6.72;;;14.20;99.90;;;;;;5047721;28;20395;-74
2022/11/09 04:13:22;;;;;;;10.25;6.75;;;14.20;99.90;;;;;;5031233;28;20673;-75
2022/11/09 04:15:49;;;;;;;9.77;6.82;;;14.20;99.90;;;;;;5031299;28;20045;-74
2022/11/09 04:18:17;;;;;;;10.57;7.40;;;14.20;99.90;;;;;;5048394;28;20128;-75
2022/11/09 04:20:44;;;;;;;10.48;8.00;;;14.20;99.90;;;;;;5047366;28;20041;-75
2022/11/09 04:23:13;;;;;;;10.65;6.95;;;14.10;99.90;;;;;;5047797;28;20051;-75
2022/11/09 04:25:41;;;;;;;14.75;6.57;;;14.10;99.90;;;;;;5030878;28;20080;-75
2022/11/09 04:28:17;;;;;;;9.52;6.72;;;14.20;99.90;;;;;;5034878;28;20057;-75
2022/11/09 04:30:45;;;;;;;10.70;7.45;;;14.10;99.90;;;;;;5031435;28;20071;-75
2022/11/09 04:33:12;;;;;;;9.95;6.97;;;14.10;99.90;;;;;;5031447;28;20049;-75
2022/11/09 04:35:40;;;;;;;11.38;6.38;;;14.10;99.90;;;;;;5048678;28;20055;-74
2022/11/09 04:38:11;;;;;;;9.65;6.55;;;14.10;99.90;;;;;;5030650;28;20503;-75
2022/11/09 04:40:39;;;;;;;10.95;6.97;;;14.10;99.90;;;;;;5047351;28;20061;-76
2022/11/09 04:43:10;;;;;;;8.05;6.63;;;14.10;99.90;;;;;;5047283;28;20049;-74
2022/11/09 04:45:38;;;;;;;12.30;7.82;;;14.10;99.90;;;;;;5030985;28;20083;-74
2022/11/09 04:48:07;;;;;;;8.45;6.65;;;14.10;99.90;;;;;;5048053;28;20561;-75
2022/11/09 04:50:34;;;;;;;7.03;6.00;;;14.10;99.90;;;;;;5057615;28;20077;-75
2022/11/09 04:53:12;;;;;;;9.48;6.40;;;14.20;99.90;;;;;;5048999;28;20379;-74
2022/11/09 04:55:40;;;;;;;7.90;6.28;;;14.20;99.90;;;;;;5045071;28;20037;-75
2022/11/09 04:58:08;;;;;;;7.95;6.72;;;14.20;99.90;;;;;;5064559;28;20063;-74
2022/11/09 05:00:36;;;;;;;8.65;5.93;;;14.20;99.90;;;;;;5065652;28;20119;-74
2022/11/09 05:03:05;;;;;;;8.57;6.18;;;14.20;99.90;;;;;;5058125;28;20044;-73
2022/11/09 05:05:37;;;;;;;10.32;6.45;;;14.20;99.90;;;;;;5049105;28;20068;-75
2022/11/09 05:08:06;;;;;;;9.50;6.85;;;14.10;99.90;;;;;;5047015;28;20067;-75
2022/11/09 05:10:34;;;;;;;9.35;6.15;;;14.20;99.90;;;;;;5050216;28;20053;-75
2022/11/09 05:13:08;;;;;;;10.90;6.80;;;14.20;99.90;;;;;;5068378;28;20048;-76
2022/11/09 05:15:36;;;;;;;11.43;6.55;;;14.20;99.90;;;;;;5050440;28;20592;-75
2022/11/09 05:18:05;;;;;;;9.02;6.85;;;14.10;99.90;;;;;;5066708;28;20032;-74
2022/11/09 05:20:34;;;;;;;10.60;6.43;;;14.10;99.90;;;;;;5036717;28;20406;-76
2022/11/09 05:25:49;;;;;;;;;;;14.20;99.90;;;;;;5052363;28;20033;-77
2022/11/09 05:28:17;;;;;;;13.23;6.68;;;14.20;99.90;;;;;;5050264;28;19944;-76
2022/11/09 05:30:44;;;;;;;9.98;6.53;;;14.20;99.90;;;;;;5033977;28;20057;-77
2022/11/09 05:33:12;;;;;;;9.27;6.97;;;14.20;99.90;;;;;;5050618;28;20044;-76
2022/11/09 05:35:39;;;;;;;15.45;6.78;;;14.20;99.90;;;;;;5050716;28;20040;-74
2022/11/09 05:38:06;;;;;;;10.20;6.55;;;14.20;99.90;;;;;;5051235;28;20048;-76
2022/11/09 05:40:34;;;;;;;10.52;6.50;;;14.20;99.90;;;;;;5033832;28;20057;-76
2022/11/09 05:43:01;;;;;;;11.98;6.85;;;14.20;99.90;;;;;;5050842;28;20491;-75
2022/11/09 05:45:29;;;;;;;9.32;6.50;;;14.20;99.90;;;;;;5050266;28;20106;-75
2022/11/09 05:48:14;;;;;;;9.43;7.40;;;14.30;99.90;;;;;;5050487;28;20049;-75
2022/11/09 05:50:42;;;;;;;11.25;7.32;;;14.50;99.90;;;;;;5050147;28;20052;-75
2022/11/09 05:53:25;;;;;;;7.47;5.95;;;14.70;99.90;;;;;;5035994;28;20044;-76
2022/11/09 05:55:53;;;;;;;9.25;6.03;;;15.00;99.90;;;;;;5051673;28;20153;-75
2022/11/09 05:58:20;;;;;;;10.30;6.60;;;15.30;99.90;;;;;;5050050;28;20041;-75
2022/11/09 06:00:48;;;;;;;10.93;6.40;;;15.70;99.90;;;;;;5049907;28;20045;-75
2022/11/09 06:03:15;;;;;;;8.00;6.72;;;16.10;99.90;;;;;;5049953;28;20507;-76
2022/11/09 06:05:43;;;;;;;9.05;7.13;;;16.50;99.90;;;;;;5033578;28;20128;-76
2022/11/09 06:08:13;;;;;;;8.20;6.05;;;16.80;99.90;;;;;;5049311;28;20094;-75
2022/11/09 06:10:41;;;;;;;8.20;6.20;;;17.30;99.90;;;;;;5049577;28;20174;-74
2022/11/09 06:13:09;;;;;;;6.97;5.25;;;17.80;99.90;;;;;;5033407;28;20229;-75
2022/11/09 06:15:37;;;;;;;6.90;5.15;;;18.30;99.90;;;;;;5017531;28;20053;-76
2022/11/09 06:18:04;;;;;;;8.27;4.88;;;18.80;99.90;;;;;;5050033;28;20060;-75
2022/11/09 06:20:32;;;;;;;7.07;5.00;;;19.30;99.90;;;;;;5065716;28;20048;-75
2022/11/09 06:23:01;;;;;;;5.97;4.47;;;19.80;99.90;;;;;;5070995;28;20471;-74
2022/11/09 06:25:31;;;;;;;5.32;4.03;;;20.30;99.90;;;;;;5037094;28;20415;-74
2022/11/09 06:27:58;;;;;;;6.93;5.13;;;20.80;99.90;;;;;;5070230;28;20482;-74
2022/11/09 06:30:26;;;;;;;8.23;4.47;;;21.20;99.90;;;;;;5052267;28;20052;-72
2022/11/09 06:32:58;;;;;;;5.72;4.25;;;21.80;99.90;;;;;;5069431;28;20048;-72
2022/11/09 06:35:26;;;;;;;6.47;4.13;;;22.30;99.90;;;;;;5070005;28;20044;-74
2022/11/09 06:37:58;;;;;;;5.25;4.00;;;22.80;99.90;;;;;;5069662;28;20048;-74
2022/11/09 06:40:26;;;;;;;6.40;4.38;;;23.20;99.90;;;;;;5052965;28;20061;-74
2022/11/09 06:42:59;;;;;;;7.18;3.88;;;23.80;99.90;;;;;;5052504;28;20378;-71
2022/11/09 06:45:28;;;;;;;5.35;3.65;;;24.30;99.90;;;;;;5069461;28;20044;-72
2022/11/09 06:47:57;;;;;;;6.28;3.47;;;24.60;99.90;;;;;;5069057;28;20576;-72
2022/11/09 06:50:26;;;;;;;6.28;3.47;;;24.80;99.90;;;;;;5051847;28;20074;-72
2022/11/09 06:52:58;;;;;;;4.93;3.15;;;24.90;99.90;;;;;;5052061;28;20056;-71
2022/11/09 06:55:26;;;;;;;6.80;2.95;;;24.90;99.90;;;;;;5068931;28;20052;-72
2022/11/09 06:57:54;;;;;;;4.13;2.97;;;24.80;99.90;;;;;;5068855;28;20056;-73
2022/11/09 07:00:23;;;;;;;4.80;2.83;;;24.80;99.90;;;;;;5069884;28;20048;-72
2022/11/09 07:02:51;;;;;;;8.85;3.97;;;24.50;99.90;;;;;;5051811;28;20059;-73
2022/11/09 07:05:19;;;;;;;4.43;2.67;;;24.30;99.90;;;;;;5068690;28;20494;-71
2022/11/09 07:07:47;;;;;;;8.52;3.65;;;24.10;99.90;;;;;;5051799;28;20060;-72
2022/11/09 07:10:14;;;;;;;6.82;3.60;;;24.00;99.90;;;;;;5068753;28;20375;-72
2022/11/09 07:12:42;;;;;;;3.95;2.50;;;23.90;99.90;;;;;;5049431;28;20389;-71
2022/11/09 07:15:10;;;;;;;5.07;3.35;;;23.80;99.90;;;;;;5051232;28;20143;-72
2022/11/09 07:17:39;;;;;;;4.82;2.47;;;23.80;99.90;;;;;;5052183;28;20041;-71
2022/11/09 07:20:09;;;;;;;5.75;2.85;;;23.80;99.90;;;;;;5051455;28;20498;-72
2022/11/09 07:22:39;;;;;;;3.67;2.90;;;23.80;99.90;;;;;;5067907;28;20041;-71
2022/11/09 07:25:08;;;;;;;4.20;2.83;;;23.80;99.90;;;;;;5057242;28;20068;-71
2022/11/09 07:27:38;;;;;;;3.35;2.60;;;23.80;99.90;;;;;;5032379;28;20049;-71
2022/11/09 07:30:06;;;;;;;6.70;2.83;;;23.90;99.90;;;;;;5048203;28;20055;-72
2022/11/09 07:32:38;;;;;;;3.30;2.05;;;23.90;99.90;;;;;;5031717;28;20049;-73
2022/11/09 07:35:26;;;;;;;5.68;2.47;;;23.90;99.90;;;;;;5048625;28;20367;-72
2022/11/09 07:37:57;;;;;;;5.63;2.22;;;23.90;99.90;;;;;;5031906;28;20049;-72
2022/11/09 07:40:26;;;;;;;3.75;2.10;;;23.80;99.90;;;;;;5047780;28;20103;-72
2022/11/09 07:42:58;;;;;;;4.47;3.25;;;23.70;99.90;;;;;;5031262;28;20161;-72
2022/11/09 07:45:27;;;;;;;3.22;2.38;;;23.50;99.90;;;;;;5048177;28;20099;-73
2022/11/09 07:48:01;;;;;;;5.03;2.55;;;23.30;99.90;;;;;;5031364;28;20458;-73
2022/11/09 07:50:31;;;;;;;4.43;2.58;;;23.10;99.90;;;;;;5031819;28;20587;-73
2022/11/09 07:53:02;;;;;;;4.47;2.40;;;22.90;99.90;;;;;;5031210;28;20041;-71
2022/11/09 07:55:32;;;;;;;5.07;3.15;;;22.80;99.90;;;;;;5031110;28;20067;-72
2022/11/09 07:58:08;;;;;;;4.97;2.38;;;22.70;99.90;;;;;;5050237;28;20048;-72
2022/11/09 08:00:38;;;;;;;3.97;2.70;;;22.70;99.90;;;;;;5066059;28;20049;-75
2022/11/09 08:03:06;;;;;;;3.40;2.03;;;22.60;99.90;;;;;;5067953;28;20048;-74
2022/11/09 08:05:35;;;;;;;3.15;2.10;;;22.60;99.90;;;;;;5067376;28;20044;-72
2022/11/09 08:08:05;;;;;;;3.42;2.10;;;22.60;99.90;;;;;;5050189;28;20052;-72
2022/11/09 08:10:34;;;;;;;5.07;2.63;;;22.70;99.90;;;;;;5034750;28;20102;-72
2022/11/09 08:13:13;;;;;;;4.45;2.45;;;22.70;99.90;;;;;;5050793;28;20510;-72
2022/11/09 08:15:41;;;;;;;8.38;3.33;;;22.80;99.90;;;;;;5050953;28;20134;-72
2022/11/09 08:18:17;;;;;;;4.05;2.88;;;22.80;99.90;;;;;;5066927;28;20036;-72
2022/11/09 08:20:45;;;;;;;4.35;2.35;;;22.90;99.90;;;;;;5050358;28;20087;-72
2022/11/09 08:23:15;;;;;;;5.22;2.85;;;22.90;99.90;;;;;;5067707;28;20080;-73
2022/11/09 08:25:43;;;;;;;4.85;2.90;;;23.00;99.90;;;;;;5051082;28;20044;-71
2022/11/09 08:28:11;;;;;;;5.40;3.63;;;23.10;99.90;;;;;;5050385;28;20059;-72
2022/11/09 08:30:42;;;;;;;4.78;3.00;;;23.30;99.90;;;;;;5050263;28;20407;-72
2022/11/09 08:33:11;;;;;;;7.55;3.78;;;23.40;99.90;;;;;;5034305;28;20053;-72
2022/11/09 08:35:38;;;;;;;7.25;3.20;;;23.50;99.90;;;;;;5050541;28;20558;-72
2022/11/09 08:38:06;;;;;;;5.00;3.05;;;23.50;99.90;;;;;;5067362;28;20055;-72
2022/11/09 08:40:34;;;;;;;5.47;3.50;;;23.70;99.90;;;;;;5068482;28;20053;-72
2022/11/09 08:43:03;;;;;;;4.90;2.67;;;23.70;99.90;;;;;;5067230;28;20499;-72
2022/11/09 08:45:33;;;;;;;4.93;3.05;;;23.80;99.90;;;;;;5050104;28;20049;-72
2022/11/09 08:48:02;;;;;;;5.78;3.17;;;23.90;99.90;;;;;;5050399;28;20072;-75
2022/11/09 08:50:31;;;;;;;4.47;3.30;;;24.00;99.90;;;;;;5067599;28;20502;-73
2022/11/09 08:53:01;;;;;;;6.30;3.55;;;24.10;99.90;;;;;;5050540;28;20154;-72
2022/11/09 08:55:29;;;;;;;5.13;3.05;;;24.20;99.90;;;;;;5064805;28;20045;-72
2022/11/09 08:57:58;;;;;;;9.00;2.80;;;24.30;99.90;;;;;;5052628;28;20136;-73
2022/11/09 09:00:26;;;;;;;5.35;2.97;;;24.40;99.90;;;;;;5052378;28;20049;-72
2022/11/09 09:02:54;;;;;;;5.55;2.97;;;24.50;99.90;;;;;;5034888;28;20051;-72
2022/11/09 09:05:22;;;;;;;4.57;2.97;;;24.70;99.90;;;;;;5050976;28;20143;-72
2022/11/09 09:07:50;;;;;;;4.82;3.20;;;24.80;99.90;;;;;;5034681;28;20150;-71
2022/11/09 09:10:17;;;;;;;6.30;3.15;;;24.90;99.90;;;;;;5017550;28;20067;-73
2022/11/09 09:12:45;;;;;;;4.38;2.85;;;24.80;99.90;;;;;;5034232;28;20063;-72
2022/11/09 09:15:13;;;;;;;6.13;3.50;;;24.60;99.90;;;;;;5050936;28;20049;-72
2022/11/09 09:17:40;;;;;;;5.22;3.20;;;24.10;99.90;;;;;;5052328;28;20136;-72
2022/11/09 09:20:08;;;;;;;4.68;2.63;;;23.70;99.90;;;;;;5050149;28;20383;-72
2022/11/09 09:22:36;;;;;;;4.85;2.95;;;23.30;99.90;;;;;;5050386;28;20037;-72
2022/11/09 09:25:04;;;;;;;5.15;3.05;;;23.00;99.90;;;;;;5052001;28;20151;-72
2022/11/09 09:27:31;;;;;;;5.60;3.28;;;22.70;99.90;;;;;;5050287;28;20041;-72
2022/11/09 09:29:59;;;;;;;6.05;3.28;;;22.30;99.90;;;;;;5050677;28;20174;-73
2022/11/09 09:32:28;;;;;;;4.72;3.22;;;22.10;99.90;;;;;;5050697;28;20087;-70
2022/11/09 09:34:55;;;;;;;4.95;3.35;;;21.80;99.90;;;;;;5033195;28;20084;-70
2022/11/09 09:37:23;;;;;;;5.75;3.83;;;21.60;99.90;;;;;;5051632;28;20372;-72
2022/11/09 09:39:51;;;;;;;4.55;2.72;;;21.40;99.90;;;;;;5033412;28;20045;-71
2022/11/09 09:42:36;;;;;;;4.90;3.10;;;21.40;99.90;;;;;;5033727;28;20525;-71
2022/11/09 09:45:14;;;;;;;4.18;2.97;;;21.50;99.90;;;;;;5049039;28;20151;-72
2022/11/09 09:47:54;;;;;;;5.78;2.80;;;21.90;99.90;;;;;;5053786;28;20052;-71
2022/11/09 09:50:26;;;;;;;6.32;3.40;;;22.50;99.90;;;;;;5067733;28;20110;-70
2022/11/09 09:53:01;;;;;;;5.78;2.53;;;22.70;99.90;;;;;;5052706;28;20056;-71
2022/11/09 09:56:20;;;;;;;6.85;3.42;;;23.10;99.90;;;;;;5070061;28;20544;-70
2022/11/09 09:59:05;;;;;;;4.40;3.03;;;23.50;99.90;;;;;;5070880;28;20241;-72
2022/11/09 10:01:37;;;;;;;5.78;2.78;;;23.30;99.90;;;;;;5053132;28;20088;-70
2022/11/09 10:04:17;;;;;;;5.38;3.42;;;23.50;99.90;;;;;;5062650;28;20056;-72
2022/11/09 10:07:10;;;;;;;6.30;3.22;;;23.40;99.90;;;;;;5033344;28;20411;-71
2022/11/09 10:10:16;;;;;;;5.45;3.70;;;23.70;99.90;;;;;;5049790;28;20041;-73
2022/11/09 10:13:13;;;;;;;4.25;3.25;;;24.10;99.90;;;;;;5050819;28;20067;-73
2022/11/09 10:16:06;;;;;;;4.00;2.70;;;24.10;99.90;;;;;;5039906;28;20045;-73
2022/11/09 10:18:59;;;;;;;5.43;3.10;;;23.90;99.90;;;;;;5052075;28;20044;-74
2022/11/09 10:21:58;;;;;;;4.35;2.97;;;23.70;99.90;;;;;;5068799;28;20045;-72
2022/11/09 10:25:04;;;;;;;4.50;3.00;;;23.70;99.90;;;;;;5049136;28;20048;-73
2022/11/09 10:28:01;;;;;;;4.30;2.83;;;24.10;99.90;;;;;;5024803;28;20048;-72
2022/11/09 10:30:29;;;;;;;5.43;3.15;;;24.10;99.90;;;;;;5037532;28;20037;-73
2022/11/09 10:33:20;;;;;;;5.47;2.60;;;23.90;99.90;;;;;;5066808;28;20050;-72
2022/11/09 10:36:22;;;;;;;3.85;2.97;;;23.70;99.90;;;;;;5043365;28;20471;-75
2022/11/09 10:38:53;;;;;;;5.75;3.40;;;23.60;99.90;;;;;;5032525;28;20534;-72
2022/11/09 10:41:43;;;;;;;4.32;2.67;;;23.80;99.90;;;;;;5053148;28;20193;-72
2022/11/09 10:44:29;;;;;;;3.55;2.45;;;24.10;99.90;;;;;;5060377;28;20052;-73
2022/11/09 10:47:16;;;;;;;;;;;24.30;99.90;;;;;;5061635;28;20491;-73
2022/11/09 10:50:28;;;;;;;5.20;2.97;;;24.50;99.90;;;;;;5061906;28;19943;-74
2022/11/09 10:53:18;;;;;;;4.38;2.55;;;24.70;99.90;;;;;;5067187;28;20067;-74
2022/11/09 10:56:15;;;;;;;5.00;2.67;;;24.80;99.90;;;;;;5062968;28;20037;-72
2022/11/09 10:59:39;;;;;;;3.92;2.95;;;25.00;99.90;;;;;;5067659;28;20041;-72
2022/11/09 11:02:25;;;;;;;5.38;3.20;;;25.00;99.30;;;;;;5045055;28;20067;-74
2022/11/09 11:05:18;;;;;;;4.93;3.58;;;25.00;99.40;;;;;;5042989;28;20048;-73
2022/11/09 11:08:30;;;;;;;4.90;3.20;;;25.00;99.90;;;;;;5056743;28;20162;-73
2022/11/09 11:11:18;;;;;;;6.00;4.28;;;25.10;99.90;;;;;;5058903;28;20048;-74
2022/11/09 11:14:20;;;;;;;5.78;3.10;;;25.00;99.90;;;;;;5045355;28;20068;-73
2022/11/09 11:17:41;;;;;;;4.65;3.20;;;25.20;99.80;;;;;;5062561;28;20048;-72
2022/11/09 11:20:28;;;;;;;5.40;3.50;;;25.20;99.80;;;;;;5009693;28;20044;-72
2022/11/09 11:23:19;;;;;;;5.47;3.38;;;25.30;99.90;;;;;;5047623;28;20041;-73
2022/11/09 11:26:20;;;;;;;4.85;3.40;;;25.30;99.90;;;;;;5051485;28;20372;-72
2022/11/09 11:29:25;;;;;;;5.07;3.28;;;25.50;99.90;;;;;;5046918;28;20540;-72
2022/11/09 11:32:14;;;;;;;5.07;3.10;;;25.50;99.60;;;;;;5047035;28;20106;-73
2022/11/09 11:35:04;;;;;;;4.20;2.72;;;25.50;99.40;;;;;;5048200;28;20550;-72
2022/11/09 11:38:00;;;;;;;4.68;3.20;;;25.50;99.10;;;;;;5033185;28;20098;-72
2022/11/09 11:41:25;;;;;;;6.87;3.20;;;25.50;99.30;;;;;;5051834;28;20064;-74
2022/11/09 11:44:23;;;;;;;4.90;3.25;;;25.40;99.20;;;;;;5066599;28;20130;-73
2022/11/09 11:47:24;;;;;;;5.47;2.58;;;25.00;99.10;;;;;;5047758;28;20090;-72
2022/11/09 11:50:28;;;;;;;4.38;3.22;;;24.50;97.90;;;;;;5046328;28;20541;-73
2022/11/09 11:53:29;;;;;;;3.88;2.65;;;24.40;98.70;;;;;;5047794;28;20044;-72
2022/11/09 11:56:30;;;;;;;5.15;2.90;;;24.20;98.90;;;;;;5047392;28;20037;-73
2022/11/09 11:59:34;;;;;;;4.57;2.75;;;23.90;99.20;;;;;;5066719;28;20040;-72
2022/11/09 12:02:47;;;;;;;6.93;3.70;;;23.70;99.30;;;;;;5053569;28;20071;-74
2022/11/09 12:05:51;;;;;;;3.95;2.78;;;23.30;99.70;;;;;;5067773;28;20040;-73
2022/11/09 12:08:59;;;;;;;5.00;2.90;;;22.90;99.90;;;;;;5067975;28;20040;-71
2022/11/09 12:12:06;;;;;;;4.00;2.80;;;22.70;99.90;;;;;;5053728;28;20174;-72
2022/11/09 12:15:11;;;;;;;4.47;2.80;;;22.60;99.90;;;;;;5067333;28;20044;-72
2022/11/09 12:18:10;;;;;;;4.25;3.22;;;22.50;99.90;;;;;;5067882;28;20048;-72
2022/11/09 12:21:08;;;;;;;6.32;4.38;;;22.60;99.90;;;;;;5065461;28;20545;-74
2022/11/09 12:24:10;;;;;;;4.97;3.05;;;22.80;99.90;;;;;;5047847;28;20041;-72
2022/11/09 12:27:25;;;;;;;6.72;2.50;;;23.10;99.90;;;;;;5047720;28;20129;-73
2022/11/09 12:30:22;;;;;;;5.20;3.08;;;23.30;99.90;;;;;;5051719;28;20083;-72
2022/11/09 12:33:13;;;;;;;4.22;2.80;;;23.50;99.40;;;;;;5068870;28;20045;-72
2022/11/09 12:36:11;;;;;;;4.20;3.17;;;23.70;99.90;;;;;;5067674;28;20110;-73
2022/11/09 12:39:06;;;;;;;5.60;3.35;;;23.80;99.90;;;;;;5067675;28;20079;-72
2022/11/09 12:42:02;;;;;;;7.20;3.80;;;23.90;99.90;;;;;;5067766;28;20383;-72
2022/11/09 12:45:10;;;;;;;16.77;3.38;;;24.00;99.90;;;;;;5067473;28;20040;-72
2022/11/09 12:47:59;;;;;;;9.35;3.20;;;24.00;99.90;;;;;;5067222;28;20059;-72
2022/11/09 12:50:45;;;;;;;4.72;2.80;;;24.10;99.90;;;;;;5065015;28;20040;-72
2022/11/09 12:53:36;;;;;;;4.75;3.60;;;24.10;99.90;;;;;;5067655;28;20051;-72
2022/11/09 12:56:31;;;;;;;5.72;3.08;;;23.50;99.90;;;;;;5067053;28;20044;-72
2022/11/09 12:59:26;;;;;;;5.47;3.35;;;23.30;99.90;;;;;;5067179;28;20040;-74
2022/11/09 13:02:30;;;;;;;6.18;3.08;;;23.00;99.90;;;;;;5053172;28;20040;-72
2022/11/09 13:05:36;;;;;;;4.63;3.25;;;22.30;99.90;;;;;;5067263;28;20033;-72
2022/11/09 13:08:28;;;;;;;4.40;3.00;;;21.80;99.90;;;;;;5067145;28;20082;-72
2022/11/09 13:11:20;;;;;;;5.15;3.38;;;21.80;99.90;;;;;;5052270;28;20053;-72
2022/11/09 13:14:21;;;;;;;4.65;3.30;;;22.00;99.90;;;;;;5066957;28;20072;-72
2022/11/09 13:17:25;;;;;;;7.32;3.75;;;22.10;99.90;;;;;;5068459;28;20032;-72
2022/11/09 13:20:33;;;;;;;5.00;3.90;;;22.40;99.90;;;;;;5052424;28;20143;-73
2022/11/09 13:23:38;;;;;;;5.07;3.00;;;22.60;99.90;;;;;;5067078;28;20415;-72
2022/11/09 13:26:47;;;;;;;4.53;3.92;;;22.40;99.90;;;;;;5055700;28;20182;-72
2022/11/09 13:29:40;;;;;;;5.30;3.88;;;22.20;99.90;;;;;;5047247;28;20491;-72
2022/11/09 13:32:32;;;;;;;4.30;2.95;;;22.20;99.90;;;;;;5033148;28;20064;-73